sensor_id;sensor_type;location;lat;lon;timestamp;P1;durP1;ratioP1;P2;durP2;ratioP2
14251;SDS011;7210;51.502;10.722;2023-05-01T00:00:06;6.83;;;5.40;;
14251;SDS011;7210;51.502;10.722;2023-05-01T00:02:37;8.10;;;6.33;;
14251;SDS011;7210;51.502;10.722;2023-05-01T00:05:05;6.20;;;4.97;;
14251;SDS011;7210;51.502;10.722;2023-05-01T00:07:33;6.30;;;5.37;;
14251;SDS011;7210;51.502;10.722;2023-05-01T00:10:01;7.80;;;5.43;;
14251;SDS011;7210;51.502;10.722;2023-05-01T00:12:28;6.43;;;5.20;;
14251;SDS011;7210;51.502;10.722;2023-05-01T00:14:55;7.57;;;5.90;;
14251;SDS011;7210;51.502;10.722;2023-05-01T00:17:22;8.60;;;6.70;;
14251;SDS011;7210;51.502;10.722;2023-05-01T00:19:51;8.37;;;6.77;;
14251;SDS011;7210;51.502;10.722;2023-05-01T00:22:19;9.60;;;6.53;;
14251;SDS011;7210;51.502;10.722;2023-05-01T00:24:46;9.00;;;7.33;;
14251;SDS011;7210;51.502;10.722;2023-05-01T00:27:14;9.50;;;6.43;;
14251;SDS011;7210;51.502;10.722;2023-05-01T00:29:41;7.90;;;6.23;;
14251;SDS011;7210;51.502;10.722;2023-05-01T00:32:08;7.67;;;6.80;;
14251;SDS011;7210;51.502;10.722;2023-05-01T00:34:35;7.03;;;5.93;;
14251;SDS011;7210;51.502;10.722;2023-05-01T00:37:04;7.50;;;6.10;;
14251;SDS011;7210;51.502;10.722;2023-05-01T00:39:31;7.30;;;6.00;;
14251;SDS011;7210;51.502;10.722;2023-05-01T00:41:58;6.17;;;5.57;;
14251;SDS011;7210;51.502;10.722;2023-05-01T00:44:26;7.17;;;6.03;;
14251;SDS011;7210;51.502;10.722;2023-05-01T00:46:53;7.80;;;5.60;;
14251;SDS011;7210;51.502;10.722;2023-05-01T00:49:24;6.97;;;5.73;;
14251;SDS011;7210;51.502;10.722;2023-05-01T00:51:52;9.70;;;5.40;;
14251;SDS011;7210;51.502;10.722;2023-05-01T00:54:24;6.00;;;5.40;;
14251;SDS011;7210;51.502;10.722;2023-05-01T00:56:52;6.73;;;5.10;;
14251;SDS011;7210;51.502;10.722;2023-05-01T00:59:20;6.87;;;5.20;;
14251;SDS011;7210;51.502;10.722;2023-05-01T01:01:48;7.67;;;5.37;;
14251;SDS011;7210;51.502;10.722;2023-05-01T01:04:16;5.67;;;5.07;;
14251;SDS011;7210;51.502;10.722;2023-05-01T01:06:48;5.93;;;5.30;;
14251;SDS011;7210;51.502;10.722;2023-05-01T01:09:30;5.30;;;4.80;;
14251;SDS011;7210;51.502;10.722;2023-05-01T01:12:08;6.33;;;5.13;;
14251;SDS011;7210;51.502;10.722;2023-05-01T01:14:45;6.87;;;5.30;;
14251;SDS011;7210;51.502;10.722;2023-05-01T01:17:29;7.97;;;5.93;;
14251;SDS011;7210;51.502;10.722;2023-05-01T01:20:13;8.10;;;5.70;;
14251;SDS011;7210;51.502;10.722;2023-05-01T01:23:01;7.23;;;5.53;;
14251;SDS011;7210;51.502;10.722;2023-05-01T01:32:10;6.57;;;4.90;;
14251;SDS011;7210;51.502;10.722;2023-05-01T01:35:09;7.30;;;5.03;;
14251;SDS011;7210;51.502;10.722;2023-05-01T01:37:47;6.70;;;5.07;;
14251;SDS011;7210;51.502;10.722;2023-05-01T01:40:21;6.63;;;5.13;;
14251;SDS011;7210;51.502;10.722;2023-05-01T01:43:00;7.37;;;5.00;;
14251;SDS011;7210;51.502;10.722;2023-05-01T01:45:33;7.80;;;6.00;;
14251;SDS011;7210;51.502;10.722;2023-05-01T01:48:06;6.40;;;5.80;;
14251;SDS011;7210;51.502;10.722;2023-05-01T01:50:39;9.00;;;5.00;;
14251;SDS011;7210;51.502;10.722;2023-05-01T01:53:10;5.83;;;5.23;;
14251;SDS011;7210;51.502;10.722;2023-05-01T01:55:44;6.97;;;5.63;;
14251;SDS011;7210;51.502;10.722;2023-05-01T01:58:14;6.00;;;5.40;;
14251;SDS011;7210;51.502;10.722;2023-05-01T02:00:50;6.17;;;5.57;;
14251;SDS011;7210;51.502;10.722;2023-05-01T02:03:20;6.73;;;5.07;;
14251;SDS011;7210;51.502;10.722;2023-05-01T02:05:51;6.43;;;5.43;;
14251;SDS011;7210;51.502;10.722;2023-05-01T02:08:20;10.47;;;5.30;;
14251;SDS011;7210;51.502;10.722;2023-05-01T02:10:49;7.40;;;5.30;;
14251;SDS011;7210;51.502;10.722;2023-05-01T02:16:15;7.30;;;5.57;;
14251;SDS011;7210;51.502;10.722;2023-05-01T02:18:44;5.63;;;4.83;;
14251;SDS011;7210;51.502;10.722;2023-05-01T02:21:13;6.73;;;5.37;;
14251;SDS011;7210;51.502;10.722;2023-05-01T02:23:42;6.57;;;5.87;;
14251;SDS011;7210;51.502;10.722;2023-05-01T02:26:12;6.10;;;5.20;;
14251;SDS011;7210;51.502;10.722;2023-05-01T02:28:42;5.23;;;4.73;;
14251;SDS011;7210;51.502;10.722;2023-05-01T02:31:12;5.43;;;4.60;;
14251;SDS011;7210;51.502;10.722;2023-05-01T02:33:39;8.30;;;4.87;;
14251;SDS011;7210;51.502;10.722;2023-05-01T02:36:07;15.77;;;8.53;;
14251;SDS011;7210;51.502;10.722;2023-05-01T02:38:36;12.47;;;6.97;;
14251;SDS011;7210;51.502;10.722;2023-05-01T02:41:03;6.17;;;5.23;;
14251;SDS011;7210;51.502;10.722;2023-05-01T02:43:35;6.53;;;5.60;;
14251;SDS011;7210;51.502;10.722;2023-05-01T02:46:06;5.97;;;4.77;;
14251;SDS011;7210;51.502;10.722;2023-05-01T02:48:38;7.33;;;5.20;;
14251;SDS011;7210;51.502;10.722;2023-05-01T02:51:08;6.40;;;4.97;;
14251;SDS011;7210;51.502;10.722;2023-05-01T02:53:37;8.33;;;5.47;;
14251;SDS011;7210;51.502;10.722;2023-05-01T02:56:15;6.07;;;5.33;;
14251;SDS011;7210;51.502;10.722;2023-05-01T02:58:42;5.83;;;5.23;;
14251;SDS011;7210;51.502;10.722;2023-05-01T03:01:10;6.70;;;5.37;;
14251;SDS011;7210;51.502;10.722;2023-05-01T03:03:37;6.60;;;5.77;;
14251;SDS011;7210;51.502;10.722;2023-05-01T03:06:04;10.00;;;6.00;;
14251;SDS011;7210;51.502;10.722;2023-05-01T03:08:32;12.43;;;8.83;;
14251;SDS011;7210;51.502;10.722;2023-05-01T03:11:04;6.87;;;6.17;;
14251;SDS011;7210;51.502;10.722;2023-05-01T03:13:32;7.53;;;5.60;;
14251;SDS011;7210;51.502;10.722;2023-05-01T03:15:59;6.40;;;5.60;;
14251;SDS011;7210;51.502;10.722;2023-05-01T03:18:28;8.30;;;5.77;;
14251;SDS011;7210;51.502;10.722;2023-05-01T03:20:56;9.57;;;5.83;;
14251;SDS011;7210;51.502;10.722;2023-05-01T03:23:24;6.07;;;5.47;;
14251;SDS011;7210;51.502;10.722;2023-05-01T03:25:52;6.77;;;5.53;;
14251;SDS011;7210;51.502;10.722;2023-05-01T03:28:21;5.80;;;5.23;;
14251;SDS011;7210;51.502;10.722;2023-05-01T03:30:51;6.03;;;5.23;;
14251;SDS011;7210;51.502;10.722;2023-05-01T03:33:19;7.60;;;5.77;;
14251;SDS011;7210;51.502;10.722;2023-05-01T03:35:46;5.97;;;5.07;;
14251;SDS011;7210;51.502;10.722;2023-05-01T03:38:14;5.93;;;5.37;;
14251;SDS011;7210;51.502;10.722;2023-05-01T03:40:59;8.10;;;5.90;;
14251;SDS011;7210;51.502;10.722;2023-05-01T03:43:54;5.97;;;5.37;;
14251;SDS011;7210;51.502;10.722;2023-05-01T03:46:35;6.83;;;5.43;;
14251;SDS011;7210;51.502;10.722;2023-05-01T03:49:04;6.00;;;5.40;;
14251;SDS011;7210;51.502;10.722;2023-05-01T03:51:37;8.87;;;5.47;;
14251;SDS011;7210;51.502;10.722;2023-05-01T03:54:04;6.40;;;5.80;;
14251;SDS011;7210;51.502;10.722;2023-05-01T03:56:45;6.93;;;5.67;;
14251;SDS011;7210;51.502;10.722;2023-05-01T03:59:14;9.07;;;5.63;;
14251;SDS011;7210;51.502;10.722;2023-05-01T04:01:41;7.10;;;6.37;;
14251;SDS011;7210;51.502;10.722;2023-05-01T04:04:09;7.83;;;6.10;;
14251;SDS011;7210;51.502;10.722;2023-05-01T04:06:39;8.87;;;5.90;;
14251;SDS011;7210;51.502;10.722;2023-05-01T04:09:07;7.97;;;5.90;;
14251;SDS011;7210;51.502;10.722;2023-05-01T04:11:34;7.60;;;5.73;;
14251;SDS011;7210;51.502;10.722;2023-05-01T04:14:01;6.47;;;5.40;;
14251;SDS011;7210;51.502;10.722;2023-05-01T04:16:30;6.40;;;5.50;;
14251;SDS011;7210;51.502;10.722;2023-05-01T04:19:00;7.10;;;5.60;;
14251;SDS011;7210;51.502;10.722;2023-05-01T04:21:28;11.07;;;6.30;;
14251;SDS011;7210;51.502;10.722;2023-05-01T04:23:55;10.60;;;5.73;;
14251;SDS011;7210;51.502;10.722;2023-05-01T04:26:22;7.03;;;5.67;;
14251;SDS011;7210;51.502;10.722;2023-05-01T04:28:50;7.07;;;5.30;;
14251;SDS011;7210;51.502;10.722;2023-05-01T04:31:21;6.77;;;5.03;;
14251;SDS011;7210;51.502;10.722;2023-05-01T04:33:50;5.93;;;5.33;;
14251;SDS011;7210;51.502;10.722;2023-05-01T04:36:18;5.77;;;5.07;;
14251;SDS011;7210;51.502;10.722;2023-05-01T04:38:45;5.80;;;5.30;;
14251;SDS011;7210;51.502;10.722;2023-05-01T04:41:13;9.23;;;5.90;;
14251;SDS011;7210;51.502;10.722;2023-05-01T04:43:40;6.17;;;5.57;;
14251;SDS011;7210;51.502;10.722;2023-05-01T04:46:08;5.93;;;5.30;;
14251;SDS011;7210;51.502;10.722;2023-05-01T04:48:35;7.50;;;5.23;;
14251;SDS011;7210;51.502;10.722;2023-05-01T04:51:03;7.37;;;5.80;;
14251;SDS011;7210;51.502;10.722;2023-05-01T04:53:32;10.50;;;6.57;;
14251;SDS011;7210;51.502;10.722;2023-05-01T04:56:01;6.43;;;5.53;;
14251;SDS011;7210;51.502;10.722;2023-05-01T04:58:31;9.43;;;6.83;;
14251;SDS011;7210;51.502;10.722;2023-05-01T05:01:04;8.27;;;6.60;;
14251;SDS011;7210;51.502;10.722;2023-05-01T05:03:32;8.73;;;6.43;;
14251;SDS011;7210;51.502;10.722;2023-05-01T05:05:59;9.70;;;6.50;;
14251;SDS011;7210;51.502;10.722;2023-05-01T05:08:28;7.23;;;6.40;;
14251;SDS011;7210;51.502;10.722;2023-05-01T05:11:05;11.10;;;6.67;;
14251;SDS011;7210;51.502;10.722;2023-05-01T05:13:55;8.70;;;5.90;;
14251;SDS011;7210;51.502;10.722;2023-05-01T05:16:23;7.53;;;6.70;;
14251;SDS011;7210;51.502;10.722;2023-05-01T05:18:50;7.13;;;6.43;;
14251;SDS011;7210;51.502;10.722;2023-05-01T05:21:20;9.03;;;6.40;;
14251;SDS011;7210;51.502;10.722;2023-05-01T05:23:55;8.67;;;6.80;;
14251;SDS011;7210;51.502;10.722;2023-05-01T05:26:22;6.47;;;5.77;;
14251;SDS011;7210;51.502;10.722;2023-05-01T05:28:52;8.63;;;6.50;;
14251;SDS011;7210;51.502;10.722;2023-05-01T05:31:19;10.87;;;6.43;;
14251;SDS011;7210;51.502;10.722;2023-05-01T05:33:49;6.57;;;5.73;;
14251;SDS011;7210;51.502;10.722;2023-05-01T05:36:17;6.83;;;5.73;;
14251;SDS011;7210;51.502;10.722;2023-05-01T05:38:44;16.90;;;8.37;;
14251;SDS011;7210;51.502;10.722;2023-05-01T05:41:16;9.83;;;6.10;;
14251;SDS011;7210;51.502;10.722;2023-05-01T05:43:45;7.50;;;6.20;;
14251;SDS011;7210;51.502;10.722;2023-05-01T05:46:12;7.73;;;6.07;;
14251;SDS011;7210;51.502;10.722;2023-05-01T05:48:40;7.87;;;6.03;;
14251;SDS011;7210;51.502;10.722;2023-05-01T05:51:12;6.60;;;5.70;;
14251;SDS011;7210;51.502;10.722;2023-05-01T05:53:39;7.53;;;6.43;;
14251;SDS011;7210;51.502;10.722;2023-05-01T05:56:07;8.00;;;6.33;;
14251;SDS011;7210;51.502;10.722;2023-05-01T05:58:35;15.27;;;8.33;;
14251;SDS011;7210;51.502;10.722;2023-05-01T06:01:03;8.27;;;6.00;;
14251;SDS011;7210;51.502;10.722;2023-05-01T06:03:36;11.67;;;5.77;;
14251;SDS011;7210;51.502;10.722;2023-05-01T06:06:03;12.27;;;6.17;;
14251;SDS011;7210;51.502;10.722;2023-05-01T06:08:31;7.27;;;5.80;;
14251;SDS011;7210;51.502;10.722;2023-05-01T06:10:59;7.53;;;5.70;;
14251;SDS011;7210;51.502;10.722;2023-05-01T06:13:26;7.40;;;5.63;;
14251;SDS011;7210;51.502;10.722;2023-05-01T06:15:55;7.43;;;5.50;;
14251;SDS011;7210;51.502;10.722;2023-05-01T06:18:22;8.70;;;5.73;;
14251;SDS011;7210;51.502;10.722;2023-05-01T06:20:50;10.37;;;5.80;;
14251;SDS011;7210;51.502;10.722;2023-05-01T06:23:19;8.73;;;6.20;;
14251;SDS011;7210;51.502;10.722;2023-05-01T06:25:57;8.27;;;6.40;;
14251;SDS011;7210;51.502;10.722;2023-05-01T06:28:24;10.67;;;6.33;;
14251;SDS011;7210;51.502;10.722;2023-05-01T06:30:51;9.60;;;5.90;;
14251;SDS011;7210;51.502;10.722;2023-05-01T06:33:20;8.03;;;5.60;;
14251;SDS011;7210;51.502;10.722;2023-05-01T06:35:59;8.90;;;6.13;;
14251;SDS011;7210;51.502;10.722;2023-05-01T06:38:27;6.93;;;5.63;;
14251;SDS011;7210;51.502;10.722;2023-05-01T06:40:54;10.50;;;6.10;;
14251;SDS011;7210;51.502;10.722;2023-05-01T06:43:21;12.77;;;10.70;;
14251;SDS011;7210;51.502;10.722;2023-05-01T06:45:52;22.13;;;17.27;;
14251;SDS011;7210;51.502;10.722;2023-05-01T06:48:20;11.17;;;8.17;;
14251;SDS011;7210;51.502;10.722;2023-05-01T06:50:48;9.50;;;6.80;;
14251;SDS011;7210;51.502;10.722;2023-05-01T06:53:15;7.67;;;5.77;;
14251;SDS011;7210;51.502;10.722;2023-05-01T06:55:42;10.07;;;6.33;;
14251;SDS011;7210;51.502;10.722;2023-05-01T06:58:09;12.10;;;6.03;;
14251;SDS011;7210;51.502;10.722;2023-05-01T07:00:37;11.60;;;6.97;;
14251;SDS011;7210;51.502;10.722;2023-05-01T07:03:04;10.60;;;7.03;;
14251;SDS011;7210;51.502;10.722;2023-05-01T07:05:32;9.87;;;6.20;;
14251;SDS011;7210;51.502;10.722;2023-05-01T07:07:59;7.53;;;5.50;;
14251;SDS011;7210;51.502;10.722;2023-05-01T07:10:26;8.70;;;5.47;;
14251;SDS011;7210;51.502;10.722;2023-05-01T07:12:54;8.50;;;6.17;;
14251;SDS011;7210;51.502;10.722;2023-05-01T07:15:22;10.17;;;6.30;;
14251;SDS011;7210;51.502;10.722;2023-05-01T07:17:49;11.73;;;7.20;;
14251;SDS011;7210;51.502;10.722;2023-05-01T07:20:16;10.07;;;7.17;;
14251;SDS011;7210;51.502;10.722;2023-05-01T07:22:44;9.97;;;7.10;;
14251;SDS011;7210;51.502;10.722;2023-05-01T07:25:12;8.63;;;6.63;;
14251;SDS011;7210;51.502;10.722;2023-05-01T07:27:39;9.63;;;7.10;;
14251;SDS011;7210;51.502;10.722;2023-05-01T07:30:07;8.27;;;6.90;;
14251;SDS011;7210;51.502;10.722;2023-05-01T07:32:35;10.27;;;7.07;;
14251;SDS011;7210;51.502;10.722;2023-05-01T07:35:03;10.17;;;7.77;;
14251;SDS011;7210;51.502;10.722;2023-05-01T07:37:31;14.30;;;9.00;;
14251;SDS011;7210;51.502;10.722;2023-05-01T07:40:00;10.50;;;8.07;;
14251;SDS011;7210;51.502;10.722;2023-05-01T07:42:28;9.93;;;8.70;;
14251;SDS011;7210;51.502;10.722;2023-05-01T07:44:55;11.43;;;8.57;;
14251;SDS011;7210;51.502;10.722;2023-05-01T07:47:22;11.90;;;8.40;;
14251;SDS011;7210;51.502;10.722;2023-05-01T07:49:49;12.17;;;9.17;;
14251;SDS011;7210;51.502;10.722;2023-05-01T07:52:16;12.90;;;9.20;;
14251;SDS011;7210;51.502;10.722;2023-05-01T07:54:47;13.40;;;8.93;;
14251;SDS011;7210;51.502;10.722;2023-05-01T07:57:17;10.17;;;8.07;;
14251;SDS011;7210;51.502;10.722;2023-05-01T07:59:44;12.27;;;8.93;;
14251;SDS011;7210;51.502;10.722;2023-05-01T08:02:12;11.33;;;8.53;;
14251;SDS011;7210;51.502;10.722;2023-05-01T08:04:39;11.27;;;8.70;;
14251;SDS011;7210;51.502;10.722;2023-05-01T08:07:06;11.97;;;8.87;;
14251;SDS011;7210;51.502;10.722;2023-05-01T08:09:34;13.00;;;8.87;;
14251;SDS011;7210;51.502;10.722;2023-05-01T08:12:01;10.20;;;8.77;;
14251;SDS011;7210;51.502;10.722;2023-05-01T08:14:30;12.63;;;8.13;;
14251;SDS011;7210;51.502;10.722;2023-05-01T08:16:57;11.30;;;9.00;;
14251;SDS011;7210;51.502;10.722;2023-05-01T08:19:25;11.10;;;8.47;;
14251;SDS011;7210;51.502;10.722;2023-05-01T08:21:52;10.93;;;8.27;;
14251;SDS011;7210;51.502;10.722;2023-05-01T08:24:19;13.37;;;9.20;;
14251;SDS011;7210;51.502;10.722;2023-05-01T08:26:47;10.63;;;8.30;;
14251;SDS011;7210;51.502;10.722;2023-05-01T08:29:14;11.97;;;8.13;;
14251;SDS011;7210;51.502;10.722;2023-05-01T08:31:42;11.47;;;8.20;;
14251;SDS011;7210;51.502;10.722;2023-05-01T08:34:10;10.83;;;8.50;;
14251;SDS011;7210;51.502;10.722;2023-05-01T08:36:37;9.97;;;8.10;;
14251;SDS011;7210;51.502;10.722;2023-05-01T08:39:06;12.00;;;8.37;;
14251;SDS011;7210;51.502;10.722;2023-05-01T08:41:33;9.63;;;7.47;;
14251;SDS011;7210;51.502;10.722;2023-05-01T08:44:05;9.83;;;7.33;;
14251;SDS011;7210;51.502;10.722;2023-05-01T08:46:37;9.27;;;7.70;;
14251;SDS011;7210;51.502;10.722;2023-05-01T08:49:14;11.23;;;7.43;;
14251;SDS011;7210;51.502;10.722;2023-05-01T08:51:43;12.43;;;8.90;;
14251;SDS011;7210;51.502;10.722;2023-05-01T08:54:18;9.27;;;7.43;;
14251;SDS011;7210;51.502;10.722;2023-05-01T08:56:46;9.13;;;7.27;;
14251;SDS011;7210;51.502;10.722;2023-05-01T08:59:16;9.17;;;8.03;;
14251;SDS011;7210;51.502;10.722;2023-05-01T09:01:46;13.90;;;8.63;;
14251;SDS011;7210;51.502;10.722;2023-05-01T09:04:15;11.50;;;8.33;;
14251;SDS011;7210;51.502;10.722;2023-05-01T09:06:42;9.83;;;7.70;;
14251;SDS011;7210;51.502;10.722;2023-05-01T09:09:10;11.20;;;7.83;;
14251;SDS011;7210;51.502;10.722;2023-05-01T09:11:37;11.77;;;8.23;;
14251;SDS011;7210;51.502;10.722;2023-05-01T09:14:05;9.60;;;7.73;;
14251;SDS011;7210;51.502;10.722;2023-05-01T09:16:33;8.63;;;7.60;;
14251;SDS011;7210;51.502;10.722;2023-05-01T09:19:02;8.47;;;7.47;;
14251;SDS011;7210;51.502;10.722;2023-05-01T09:21:29;9.23;;;7.37;;
14251;SDS011;7210;51.502;10.722;2023-05-01T09:23:56;8.43;;;7.53;;
14251;SDS011;7210;51.502;10.722;2023-05-01T09:26:24;10.67;;;7.57;;
14251;SDS011;7210;51.502;10.722;2023-05-01T09:28:52;9.30;;;7.33;;
14251;SDS011;7210;51.502;10.722;2023-05-01T09:31:22;8.13;;;6.80;;
14251;SDS011;7210;51.502;10.722;2023-05-01T09:33:54;10.10;;;7.63;;
14251;SDS011;7210;51.502;10.722;2023-05-01T09:36:25;8.47;;;7.13;;
14251;SDS011;7210;51.502;10.722;2023-05-01T09:39:00;7.83;;;6.90;;
14251;SDS011;7210;51.502;10.722;2023-05-01T09:41:29;7.77;;;6.40;;
14251;SDS011;7210;51.502;10.722;2023-05-01T09:43:58;8.60;;;6.33;;
14251;SDS011;7210;51.502;10.722;2023-05-01T09:46:25;9.10;;;7.17;;
14251;SDS011;7210;51.502;10.722;2023-05-01T09:48:53;8.77;;;7.50;;
14251;SDS011;7210;51.502;10.722;2023-05-01T09:51:24;12.07;;;8.33;;
14251;SDS011;7210;51.502;10.722;2023-05-01T09:53:53;8.53;;;6.17;;
14251;SDS011;7210;51.502;10.722;2023-05-01T09:56:22;8.63;;;6.57;;
14251;SDS011;7210;51.502;10.722;2023-05-01T09:58:52;8.47;;;6.63;;
14251;SDS011;7210;51.502;10.722;2023-05-01T10:01:36;9.93;;;8.47;;
14251;SDS011;7210;51.502;10.722;2023-05-01T10:04:04;10.77;;;8.00;;
14251;SDS011;7210;51.502;10.722;2023-05-01T10:06:34;7.93;;;7.13;;
14251;SDS011;7210;51.502;10.722;2023-05-01T10:09:02;9.87;;;7.10;;
14251;SDS011;7210;51.502;10.722;2023-05-01T10:11:34;10.77;;;7.00;;
14251;SDS011;7210;51.502;10.722;2023-05-01T10:14:14;11.67;;;7.87;;
14251;SDS011;7210;51.502;10.722;2023-05-01T10:16:41;9.37;;;6.90;;
14251;SDS011;7210;51.502;10.722;2023-05-01T10:19:08;8.53;;;6.87;;
14251;SDS011;7210;51.502;10.722;2023-05-01T10:21:38;7.53;;;6.70;;
14251;SDS011;7210;51.502;10.722;2023-05-01T10:24:05;9.00;;;7.20;;
14251;SDS011;7210;51.502;10.722;2023-05-01T10:26:34;9.00;;;7.37;;
14251;SDS011;7210;51.502;10.722;2023-05-01T10:29:02;8.80;;;7.70;;
14251;SDS011;7210;51.502;10.722;2023-05-01T10:31:30;8.80;;;7.33;;
14251;SDS011;7210;51.502;10.722;2023-05-01T10:33:57;8.93;;;7.53;;
14251;SDS011;7210;51.502;10.722;2023-05-01T10:36:26;7.60;;;6.87;;
14251;SDS011;7210;51.502;10.722;2023-05-01T10:39:04;8.50;;;7.37;;
14251;SDS011;7210;51.502;10.722;2023-05-01T10:44:35;9.37;;;7.07;;
14251;SDS011;7210;51.502;10.722;2023-05-01T10:50:13;7.83;;;6.93;;
14251;SDS011;7210;51.502;10.722;2023-05-01T10:55:43;8.80;;;7.10;;
14251;SDS011;7210;51.502;10.722;2023-05-01T10:58:14;7.30;;;6.60;;
14251;SDS011;7210;51.502;10.722;2023-05-01T11:01:29;6.60;;;5.97;;
14251;SDS011;7210;51.502;10.722;2023-05-01T11:04:01;9.20;;;6.70;;
14251;SDS011;7210;51.502;10.722;2023-05-01T11:06:32;7.70;;;6.00;;
14251;SDS011;7210;51.502;10.722;2023-05-01T11:09:34;6.40;;;5.80;;
14251;SDS011;7210;51.502;10.722;2023-05-01T11:12:04;7.60;;;6.40;;
14251;SDS011;7210;51.502;10.722;2023-05-01T11:17:44;7.93;;;6.53;;
14251;SDS011;7210;51.502;10.722;2023-05-01T11:23:18;8.83;;;6.57;;
14251;SDS011;7210;51.502;10.722;2023-05-01T11:25:47;7.47;;;5.90;;
14251;SDS011;7210;51.502;10.722;2023-05-01T11:28:19;8.37;;;6.43;;
14251;SDS011;7210;51.502;10.722;2023-05-01T11:30:47;8.00;;;6.07;;
14251;SDS011;7210;51.502;10.722;2023-05-01T11:33:20;8.23;;;6.57;;
14251;SDS011;7210;51.502;10.722;2023-05-01T11:35:56;7.10;;;6.07;;
14251;SDS011;7210;51.502;10.722;2023-05-01T11:38:25;6.77;;;5.60;;
14251;SDS011;7210;51.502;10.722;2023-05-01T11:40:53;6.60;;;6.00;;
14251;SDS011;7210;51.502;10.722;2023-05-01T11:43:25;7.50;;;5.97;;
14251;SDS011;7210;51.502;10.722;2023-05-01T11:45:53;8.97;;;6.33;;
14251;SDS011;7210;51.502;10.722;2023-05-01T11:48:27;7.17;;;6.43;;
14251;SDS011;7210;51.502;10.722;2023-05-01T11:50:55;7.23;;;6.27;;
14251;SDS011;7210;51.502;10.722;2023-05-01T11:53:22;7.70;;;6.13;;
14251;SDS011;7210;51.502;10.722;2023-05-01T11:55:50;6.53;;;5.60;;
14251;SDS011;7210;51.502;10.722;2023-05-01T11:58:17;5.67;;;5.00;;
14251;SDS011;7210;51.502;10.722;2023-05-01T12:00:58;7.63;;;5.50;;
14251;SDS011;7210;51.502;10.722;2023-05-01T12:03:26;7.83;;;5.70;;
14251;SDS011;7210;51.502;10.722;2023-05-01T12:05:54;5.83;;;5.20;;
14251;SDS011;7210;51.502;10.722;2023-05-01T12:08:21;5.20;;;4.70;;
14251;SDS011;7210;51.502;10.722;2023-05-01T12:10:50;5.67;;;4.20;;
14251;SDS011;7210;51.502;10.722;2023-05-01T12:13:20;4.43;;;3.73;;
14251;SDS011;7210;51.502;10.722;2023-05-01T12:15:50;6.37;;;3.80;;
14251;SDS011;7210;51.502;10.722;2023-05-01T12:18:19;3.97;;;3.20;;
14251;SDS011;7210;51.502;10.722;2023-05-01T12:20:54;4.87;;;4.47;;
14251;SDS011;7210;51.502;10.722;2023-05-01T12:23:29;5.47;;;4.17;;
14251;SDS011;7210;51.502;10.722;2023-05-01T12:25:59;4.50;;;3.70;;
14251;SDS011;7210;51.502;10.722;2023-05-01T12:28:28;3.83;;;3.37;;
14251;SDS011;7210;51.502;10.722;2023-05-01T12:31:01;4.33;;;3.00;;
14251;SDS011;7210;51.502;10.722;2023-05-01T12:33:29;3.88;;;3.47;;
14251;SDS011;7210;51.502;10.722;2023-05-01T12:36:07;4.47;;;4.07;;
14251;SDS011;7210;51.502;10.722;2023-05-01T12:38:36;5.40;;;4.88;;
14251;SDS011;7210;51.502;10.722;2023-05-01T12:41:03;4.13;;;3.23;;
14251;SDS011;7210;51.502;10.722;2023-05-01T12:43:34;7.30;;;3.20;;
14251;SDS011;7210;51.502;10.722;2023-05-01T12:46:04;4.85;;;3.42;;
14251;SDS011;7210;51.502;10.722;2023-05-01T12:48:39;4.53;;;3.60;;
14251;SDS011;7210;51.502;10.722;2023-05-01T12:51:07;4.63;;;4.03;;
14251;SDS011;7210;51.502;10.722;2023-05-01T12:53:34;4.37;;;3.30;;
14251;SDS011;7210;51.502;10.722;2023-05-01T12:56:18;4.83;;;3.40;;
14251;SDS011;7210;51.502;10.722;2023-05-01T12:58:48;3.33;;;3.00;;
14251;SDS011;7210;51.502;10.722;2023-05-01T13:01:25;4.32;;;3.30;;
14251;SDS011;7210;51.502;10.722;2023-05-01T13:03:53;3.38;;;3.08;;
14251;SDS011;7210;51.502;10.722;2023-05-01T13:06:29;3.75;;;3.35;;
14251;SDS011;7210;51.502;10.722;2023-05-01T13:09:06;6.30;;;4.37;;
14251;SDS011;7210;51.502;10.722;2023-05-01T13:11:34;3.97;;;3.17;;
14251;SDS011;7210;51.502;10.722;2023-05-01T13:14:06;5.50;;;3.00;;
14251;SDS011;7210;51.502;10.722;2023-05-01T13:16:45;5.07;;;3.27;;
14251;SDS011;7210;51.502;10.722;2023-05-01T13:19:12;4.33;;;3.30;;
14251;SDS011;7210;51.502;10.722;2023-05-01T13:21:49;3.10;;;2.80;;
14251;SDS011;7210;51.502;10.722;2023-05-01T13:24:16;3.60;;;2.70;;
14251;SDS011;7210;51.502;10.722;2023-05-01T13:26:44;4.07;;;3.10;;
14251;SDS011;7210;51.502;10.722;2023-05-01T13:29:12;3.13;;;2.83;;
14251;SDS011;7210;51.502;10.722;2023-05-01T13:31:41;3.40;;;3.10;;
14251;SDS011;7210;51.502;10.722;2023-05-01T13:34:10;3.13;;;2.83;;
14251;SDS011;7210;51.502;10.722;2023-05-01T13:36:47;3.33;;;2.60;;
14251;SDS011;7210;51.502;10.722;2023-05-01T13:39:16;3.07;;;2.60;;
14251;SDS011;7210;51.502;10.722;2023-05-01T13:41:45;3.13;;;2.43;;
14251;SDS011;7210;51.502;10.722;2023-05-01T13:44:18;10.50;;;5.43;;
14251;SDS011;7210;51.502;10.722;2023-05-01T13:46:48;3.35;;;3.05;;
14251;SDS011;7210;51.502;10.722;2023-05-01T13:49:16;4.13;;;3.05;;
14251;SDS011;7210;51.502;10.722;2023-05-01T13:51:48;3.30;;;2.80;;
14251;SDS011;7210;51.502;10.722;2023-05-01T13:54:15;3.33;;;2.75;;
14251;SDS011;7210;51.502;10.722;2023-05-01T13:56:44;3.47;;;2.72;;
14251;SDS011;7210;51.502;10.722;2023-05-01T13:59:11;3.60;;;2.80;;
14251;SDS011;7210;51.502;10.722;2023-05-01T14:01:40;3.63;;;2.97;;
14251;SDS011;7210;51.502;10.722;2023-05-01T14:04:14;3.28;;;2.40;;
14251;SDS011;7210;51.502;10.722;2023-05-01T14:06:45;3.00;;;2.20;;
14251;SDS011;7210;51.502;10.722;2023-05-01T14:09:14;2.30;;;2.10;;
14251;SDS011;7210;51.502;10.722;2023-05-01T14:11:43;3.70;;;2.57;;
14251;SDS011;7210;51.502;10.722;2023-05-01T14:14:13;6.83;;;5.93;;
14251;SDS011;7210;51.502;10.722;2023-05-01T14:16:45;2.90;;;2.63;;
14251;SDS011;7210;51.502;10.722;2023-05-01T14:19:19;4.87;;;2.70;;
14251;SDS011;7210;51.502;10.722;2023-05-01T14:21:47;2.87;;;2.60;;
14251;SDS011;7210;51.502;10.722;2023-05-01T14:24:14;4.80;;;3.03;;
14251;SDS011;7210;51.502;10.722;2023-05-01T14:26:43;3.10;;;2.80;;
14251;SDS011;7210;51.502;10.722;2023-05-01T14:29:14;3.37;;;3.07;;
14251;SDS011;7210;51.502;10.722;2023-05-01T14:31:52;4.00;;;2.80;;
14251;SDS011;7210;51.502;10.722;2023-05-01T14:34:21;2.37;;;2.17;;
14251;SDS011;7210;51.502;10.722;2023-05-01T14:36:50;2.00;;;1.80;;
14251;SDS011;7210;51.502;10.722;2023-05-01T14:39:19;3.17;;;2.30;;
14251;SDS011;7210;51.502;10.722;2023-05-01T14:41:48;7.03;;;6.10;;
14251;SDS011;7210;51.502;10.722;2023-05-01T14:44:18;4.17;;;2.60;;
14251;SDS011;7210;51.502;10.722;2023-05-01T14:46:48;3.43;;;2.20;;
14251;SDS011;7210;51.502;10.722;2023-05-01T14:49:19;3.50;;;2.00;;
14251;SDS011;7210;51.502;10.722;2023-05-01T14:51:50;3.00;;;2.30;;
14251;SDS011;7210;51.502;10.722;2023-05-01T14:54:19;2.43;;;2.23;;
14251;SDS011;7210;51.502;10.722;2023-05-01T14:56:47;2.73;;;2.13;;
14251;SDS011;7210;51.502;10.722;2023-05-01T14:59:14;2.73;;;2.50;;
14251;SDS011;7210;51.502;10.722;2023-05-01T15:01:41;2.97;;;2.60;;
14251;SDS011;7210;51.502;10.722;2023-05-01T15:04:09;6.70;;;2.77;;
14251;SDS011;7210;51.502;10.722;2023-05-01T15:06:38;4.27;;;2.93;;
14251;SDS011;7210;51.502;10.722;2023-05-01T15:09:05;3.57;;;3.00;;
14251;SDS011;7210;51.502;10.722;2023-05-01T15:11:32;5.70;;;2.97;;
14251;SDS011;7210;51.502;10.722;2023-05-01T15:13:59;3.73;;;2.77;;
14251;SDS011;7210;51.502;10.722;2023-05-01T15:16:28;3.70;;;3.10;;
14251;SDS011;7210;51.502;10.722;2023-05-01T15:18:56;10.30;;;6.27;;
14251;SDS011;7210;51.502;10.722;2023-05-01T15:21:23;3.83;;;3.30;;
14251;SDS011;7210;51.502;10.722;2023-05-01T15:23:52;3.70;;;2.90;;
14251;SDS011;7210;51.502;10.722;2023-05-01T15:26:19;3.43;;;3.03;;